Time;durP1;ratioP1;P1;durP2;ratioP2;P2;SDS_P1;SDS_P2;PMS_P1;PMS_P2;Temp;Humidity;BMP_temperature;BMP_pressure;BME280_temperature;BME280_humidity;BME280_pressure;Samples;Min_cycle;Max_cycle;Signal;HPM_P1;HPM_P2
2021/09/17 00:00:53;;;;;;;8.87;6.43;;;;;;;;;;6380882;22;20371;-77
2021/09/17 00:06:22;;;;;;;11.23;6.37;;;;;;;;;;6380977;22;20374;-78
2021/09/17 00:08:48;;;;;;;6.33;5.83;;;;;;;;;;6342495;22;20379;-78
2021/09/17 00:11:14;;;;;;;6.67;6.10;;;;;;;;;;6380792;22;20422;-77
2021/09/17 00:13:40;;;;;;;5.80;5.20;;;;;;;;;;6380696;22;20426;-77
2021/09/17 00:16:06;;;;;;;6.63;6.00;;;;;;;;;;6380796;22;20826;-78
2021/09/17 00:18:32;;;;;;;6.90;5.70;;;;;;;;;;6380589;22;20360;-77
2021/09/17 00:20:58;;;;;;;6.70;5.10;;;;;;;;;;6381091;22;20413;-77
2021/09/17 00:23:24;;;;;;;5.93;5.10;;;;;;;;;;6370321;22;20442;-76
2021/09/17 00:25:50;;;;;;;6.27;5.67;;;;;;;;;;6380325;22;20372;-78
2021/09/17 00:28:16;;;;;;;5.10;4.60;;;;;;;;;;6383049;22;20384;-76
2021/09/17 00:30:43;;;;;;;5.30;4.90;;;;;;;;;;6373672;22;20397;-77
2021/09/17 00:36:12;;;;;;;5.10;4.70;;;;;;;;;;6380622;22;20435;-78
2021/09/17 00:38:38;;;;;;;6.70;6.10;;;;;;;;;;6380757;22;20412;-75
2021/09/17 00:41:04;;;;;;;6.30;4.77;;;;;;;;;;6344240;22;20429;-77
2021/09/17 00:43:30;;;;;;;6.13;5.57;;;;;;;;;;6382412;22;20371;-77
2021/09/17 00:45:56;;;;;;;9.37;5.73;;;;;;;;;;6372119;22;20688;-76
2021/09/17 00:51:26;;;;;;;5.40;4.80;;;;;;;;;;6382322;22;20428;-77
2021/09/17 00:53:51;;;;;;;7.30;5.23;;;;;;;;;;6382362;22;20411;-76
2021/09/17 00:56:20;;;;;;;5.20;4.70;;;;;;;;;;6382130;22;20374;-77
2021/09/17 00:58:46;;;;;;;7.33;4.63;;;;;;;;;;6371980;22;20379;-76
2021/09/17 01:01:12;;;;;;;5.50;4.40;;;;;;;;;;6382251;22;20825;-77
2021/09/17 01:06:43;;;;;;;6.53;5.00;;;;;;;;;;6382251;22;20515;-76
2021/09/17 01:09:09;;;;;;;5.10;4.67;;;;;;;;;;6382144;22;20369;-76
2021/09/17 01:11:35;;;;;;;5.17;4.67;;;;;;;;;;6381762;22;20371;-78
2021/09/17 01:14:02;;;;;;;5.67;5.17;;;;;;;;;;6382027;22;20692;-77
2021/09/17 01:16:28;;;;;;;4.73;4.33;;;;;;;;;;6381989;22;20363;-77
2021/09/17 01:21:58;;;;;;;4.67;4.27;;;;;;;;;;6382327;22;20702;-76
2021/09/17 01:24:25;;;;;;;7.17;5.47;;;;;;;;;;6372056;22;20394;-77
2021/09/17 01:26:51;;;;;;;5.90;4.80;;;;;;;;;;6371724;22;20434;-76
2021/09/17 01:29:18;;;;;;;5.73;4.40;;;;;;;;;;6382412;22;20370;-77
2021/09/17 01:31:44;;;;;;;6.30;4.97;;;;;;;;;;6382024;22;20419;-76
2021/09/17 01:34:10;;;;;;;5.30;4.90;;;;;;;;;;6382247;22;20408;-78
2021/09/17 01:36:36;;;;;;;5.23;4.73;;;;;;;;;;6343668;22;20399;-76
2021/09/17 01:39:03;;;;;;;6.10;4.63;;;;;;;;;;6382125;22;20697;-76
2021/09/17 01:41:29;;;;;;;5.33;4.93;;;;;;;;;;6382279;22;20367;-77
2021/09/17 01:43:55;;;;;;;6.27;4.90;;;;;;;;;;6382080;22;20359;-77
2021/09/17 01:46:21;;;;;;;6.70;6.20;;;;;;;;;;6382148;22;20374;-77
2021/09/17 01:51:53;;;;;;;6.20;5.70;;;;;;;;;;6381615;22;20974;-77
2021/09/17 01:54:19;;;;;;;4.87;4.47;;;;;;;;;;6382051;22;20767;-77
2021/09/17 01:56:45;;;;;;;8.20;5.60;;;;;;;;;;6371614;22;20383;-77
2021/09/17 01:59:11;;;;;;;7.27;5.80;;;;;;;;;;6371849;22;20697;-77
2021/09/17 02:01:37;;;;;;;7.33;5.30;;;;;;;;;;6382760;22;20378;-78
2021/09/17 02:07:06;;;;;;;8.00;5.60;;;;;;;;;;6382429;22;20740;-77
2021/09/17 02:09:32;;;;;;;6.57;5.90;;;;;;;;;;6371742;22;20466;-77
2021/09/17 02:11:58;;;;;;;5.27;4.77;;;;;;;;;;6382106;22;20539;-76
2021/09/17 02:14:24;;;;;;;6.50;5.43;;;;;;;;;;6371873;22;20379;-77
2021/09/17 02:16:50;;;;;;;6.70;6.03;;;;;;;;;;6382048;22;20363;-77
2021/09/17 02:22:20;;;;;;;4.80;4.40;;;;;;;;;;6382129;22;20902;-77
2021/09/17 02:24:46;;;;;;;7.33;5.43;;;;;;;;;;6371175;22;20835;-77
2021/09/17 02:27:12;;;;;;;6.50;5.90;;;;;;;;;;6381752;22;20429;-77
2021/09/17 02:29:38;;;;;;;6.63;6.13;;;;;;;;;;6381738;22;20823;-77
2021/09/17 02:32:04;;;;;;;6.23;5.63;;;;;;;;;;6381415;22;20785;-77
2021/09/17 02:37:33;;;;;;;6.00;5.50;;;;;;;;;;6382045;22;20370;-78
2021/09/17 02:39:59;;;;;;;7.60;6.17;;;;;;;;;;6371500;22;20465;-78
2021/09/17 02:42:25;;;;;;;5.87;5.27;;;;;;;;;;6371654;22;20432;-77
2021/09/17 02:44:52;;;;;;;6.70;5.70;;;;;;;;;;6382002;22;20687;-77
2021/09/17 02:47:18;;;;;;;5.77;5.20;;;;;;;;;;6381927;22;20394;-78
2021/09/17 02:52:47;;;;;;;5.90;5.40;;;;;;;;;;6381901;22;20471;-78
2021/09/17 02:55:14;;;;;;;5.77;5.27;;;;;;;;;;6381699;22;20795;-78
2021/09/17 02:57:40;;;;;;;5.30;4.80;;;;;;;;;;6371318;22;20387;-78
2021/09/17 03:00:07;;;;;;;5.90;5.40;;;;;;;;;;6381634;22;20818;-78
2021/09/17 03:02:33;;;;;;;5.90;4.97;;;;;;;;;;6381093;22;20375;-78
2021/09/17 03:08:03;;;;;;;6.03;5.43;;;;;;;;;;6381685;22;20370;-78
2021/09/17 03:10:29;;;;;;;6.63;6.03;;;;;;;;;;6342762;22;20403;-78
2021/09/17 03:12:55;;;;;;;6.20;5.60;;;;;;;;;;6371260;22;20462;-77
2021/09/17 03:15:21;;;;;;;6.47;5.97;;;;;;;;;;6370892;22;20688;-78
2021/09/17 03:17:47;;;;;;;6.30;5.80;;;;;;;;;;6371291;22;20415;-78
2021/09/17 03:20:13;;;;;;;5.70;5.30;;;;;;;;;;6381880;22;20488;-78
2021/09/17 03:22:39;;;;;;;6.70;6.10;;;;;;;;;;6382972;22;20367;-77
2021/09/17 03:25:05;;;;;;;7.50;6.10;;;;;;;;;;6382110;22;20379;-78
2021/09/17 03:27:31;;;;;;;5.33;4.83;;;;;;;;;;6382539;22;20449;-79
2021/09/17 03:29:57;;;;;;;6.53;5.53;;;;;;;;;;6381707;22;20371;-78
2021/09/17 03:32:23;;;;;;;7.00;6.30;;;;;;;;;;6371097;22;20468;-78
2021/09/17 03:37:53;;;;;;;6.50;5.90;;;;;;;;;;6381390;22;20374;-78
2021/09/17 03:40:19;;;;;;;18.70;6.00;;;;;;;;;;6370615;22;20379;-75
2021/09/17 03:42:45;;;;;;;5.87;5.37;;;;;;;;;;6381207;22;20370;-77
2021/09/17 03:45:12;;;;;;;7.70;6.60;;;;;;;;;;6381144;22;20359;-78
2021/09/17 03:47:38;;;;;;;7.60;5.77;;;;;;;;;;6381093;22;20373;-77
2021/09/17 03:53:08;;;;;;;7.93;5.60;;;;;;;;;;6380821;22;20521;-77
2021/09/17 03:55:34;;;;;;;6.33;5.80;;;;;;;;;;6380898;22;20363;-77
2021/09/17 03:58:00;;;;;;;5.57;5.10;;;;;;;;;;6370724;22;20464;-77
2021/09/17 04:00:26;;;;;;;6.40;5.80;;;;;;;;;;6381041;22;20363;-76
2021/09/17 04:02:52;;;;;;;6.57;5.70;;;;;;;;;;6380755;22;20371;-78
2021/09/17 04:08:21;;;;;;;6.30;5.30;;;;;;;;;;6380876;22;20370;-78
2021/09/17 04:10:48;;;;;;;7.10;6.50;;;;;;;;;;6380682;22;20390;-78
2021/09/17 04:13:13;;;;;;;7.33;5.83;;;;;;;;;;6380589;22;20426;-78
2021/09/17 04:15:39;;;;;;;7.13;6.40;;;;;;;;;;6380717;22;20481;-78
2021/09/17 04:18:05;;;;;;;5.23;4.73;;;;;;;;;;6342027;22;20719;-78
2021/09/17 04:23:35;;;;;;;6.30;5.63;;;;;;;;;;6380460;22;20393;-78
2021/09/17 04:26:01;;;;;;;6.53;6.03;;;;;;;;;;6380425;22;20455;-79
2021/09/17 04:28:27;;;;;;;9.27;6.20;;;;;;;;;;6380461;22;20692;-78
2021/09/17 04:30:53;;;;;;;6.03;5.50;;;;;;;;;;6380434;22;20375;-77
2021/09/17 04:33:19;;;;;;;7.43;6.70;;;;;;;;;;6380123;22;20418;-77
2021/09/17 04:38:48;;;;;;;6.77;5.73;;;;;;;;;;6380371;22;20431;-77
2021/09/17 04:41:14;;;;;;;6.07;5.10;;;;;;;;;;6380203;22;20732;-78
2021/09/17 04:43:40;;;;;;;6.83;6.10;;;;;;;;;;6380192;22;20367;-77
2021/09/17 04:46:06;;;;;;;7.93;6.67;;;;;;;;;;6380424;22;20419;-77
2021/09/17 04:48:32;;;;;;;8.73;6.03;;;;;;;;;;6380461;22;20368;-76
2021/09/17 04:54:02;;;;;;;11.30;6.27;;;;;;;;;;6380509;22;20409;-78
2021/09/17 04:56:28;;;;;;;5.87;5.00;;;;;;;;;;6370221;22;20367;-77
2021/09/17 04:58:54;;;;;;;6.27;5.67;;;;;;;;;;6380420;22;20742;-76
2021/09/17 05:01:20;;;;;;;7.20;6.30;;;;;;;;;;6380452;22;20364;-75
2021/09/17 05:03:47;;;;;;;6.30;5.43;;;;;;;;;;6370055;22;20375;-76
2021/09/17 05:06:13;;;;;;;6.27;5.80;;;;;;;;;;6380458;22;20463;-78
2021/09/17 05:08:39;;;;;;;7.00;5.10;;;;;;;;;;6380414;22;20367;-77
2021/09/17 05:11:05;;;;;;;6.80;6.20;;;;;;;;;;6380188;22;20378;-77
2021/09/17 05:13:31;;;;;;;7.83;7.07;;;;;;;;;;6380307;22;20944;-78
2021/09/17 05:15:57;;;;;;;6.50;6.00;;;;;;;;;;6380270;22;20368;-77
2021/09/17 05:18:23;;;;;;;7.83;6.43;;;;;;;;;;6380295;22;20371;-76
2021/09/17 05:23:52;;;;;;;10.80;5.90;;;;;;;;;;6380361;22;20866;-77
2021/09/17 05:26:18;;;;;;;8.60;5.77;;;;;;;;;;6381194;22;20422;-78
2021/09/17 05:28:44;;;;;;;7.10;6.20;;;;;;;;;;6382286;22;20383;-77
2021/09/17 05:31:10;;;;;;;6.20;5.53;;;;;;;;;;6381974;22;20366;-77
2021/09/17 05:33:36;;;;;;;6.33;5.83;;;;;;;;;;6382261;22;20415;-78
2021/09/17 05:39:06;;;;;;;6.80;6.20;;;;;;;;;;6382282;22;20366;-78
2021/09/17 05:41:33;;;;;;;7.33;6.63;;;;;;;;;;6381858;22;20363;-77
2021/09/17 05:43:59;;;;;;;7.03;6.07;;;;;;;;;;6382136;22;20657;-77
2021/09/17 05:46:25;;;;;;;8.13;7.33;;;;;;;;;;6382097;22;20375;-76
2021/09/17 05:48:51;;;;;;;6.63;6.03;;;;;;;;;;6381799;22;20390;-76
2021/09/17 05:54:22;;;;;;;6.97;6.27;;;;;;;;;;6382021;22;20422;-77
2021/09/17 05:56:48;;;;;;;6.90;5.47;;;;;;;;;;6371676;22;20459;-77
2021/09/17 05:59:14;;;;;;;7.60;6.43;;;;;;;;;;6371802;22;20384;-76
2021/09/17 06:01:40;;;;;;;6.50;5.90;;;;;;;;;;6382090;22;20366;-77
2021/09/17 06:04:06;;;;;;;6.40;5.90;;;;;;;;;;6381750;22;20644;-76
2021/09/17 06:09:36;;;;;;;7.97;7.17;;;;;;;;;;6381663;22;20373;-76
2021/09/17 06:12:03;;;;;;;8.40;6.90;;;;;;;;;;6381710;22;20414;-77
2021/09/17 06:14:29;;;;;;;7.53;6.33;;;;;;;;;;6382930;22;20380;-73
2021/09/17 06:16:55;;;;;;;7.67;6.77;;;;;;;;;;6381998;22;20363;-73
2021/09/17 06:19:21;;;;;;;7.70;6.53;;;;;;;;;;6343138;22;20478;-73
2021/09/17 06:24:50;;;;;;;8.37;5.97;;;;;;;;;;6381183;22;20378;-73
2021/09/17 06:27:16;;;;;;;7.00;6.17;;;;;;;;;;6342305;22;20460;-72
2021/09/17 06:29:42;;;;;;;7.33;6.30;;;;;;;;;;6381366;22;20398;-74
2021/09/17 06:32:08;;;;;;;7.27;6.60;;;;;;;;;;6380513;22;20811;-73
2021/09/17 06:34:34;;;;;;;7.07;6.37;;;;;;;;;;6342777;22;20410;-73
2021/09/17 06:40:04;;;;;;;7.27;6.57;;;;;;;;;;6380936;22;20460;-72
2021/09/17 06:42:30;;;;;;;7.60;6.60;;;;;;;;;;6381162;22;20371;-73
2021/09/17 06:44:57;;;;;;;8.73;7.93;;;;;;;;;;6380710;22;20890;-73
2021/09/17 06:47:23;;;;;;;10.60;7.20;;;;;;;;;;6370423;22;20427;-73
2021/09/17 06:49:49;;;;;;;7.90;7.10;;;;;;;;;;6380967;22;20409;-72
2021/09/17 06:52:15;;;;;;;11.10;7.57;;;;;;;;;;6381188;22;20418;-72
2021/09/17 06:54:41;;;;;;;9.33;7.03;;;;;;;;;;6381341;22;20363;-71
2021/09/17 06:57:07;;;;;;;8.77;7.90;;;;;;;;;;6370863;22;20694;-72
2021/09/17 06:59:33;;;;;;;8.10;7.20;;;;;;;;;;6380898;22;20359;-72
2021/09/17 07:01:59;;;;;;;7.70;6.67;;;;;;;;;;6342058;22;20391;-72
2021/09/17 07:04:25;;;;;;;11.37;8.83;;;;;;;;;;6380840;22;20371;-73
2021/09/17 07:09:55;;;;;;;10.37;8.63;;;;;;;;;;6380703;22;20374;-73
2021/09/17 07:12:21;;;;;;;10.03;8.97;;;;;;;;;;6381203;22;20469;-74
2021/09/17 07:14:47;;;;;;;8.70;7.80;;;;;;;;;;6380866;22;20367;-76
2021/09/17 07:17:13;;;;;;;11.37;9.07;;;;;;;;;;6380913;22;20370;-73
2021/09/17 07:19:39;;;;;;;9.20;8.20;;;;;;;;;;6381209;22;20409;-72
2021/09/17 07:25:09;;;;;;;7.30;6.60;;;;;;;;;;6369865;22;20390;-72
2021/09/17 07:27:35;;;;;;;9.63;8.63;;;;;;;;;;6379501;22;20433;-72
2021/09/17 07:30:01;;;;;;;9.40;8.50;;;;;;;;;;6369583;22;20375;-73
2021/09/17 07:32:27;;;;;;;8.20;7.40;;;;;;;;;;6379554;22;20410;-72
2021/09/17 07:34:54;;;;;;;7.93;7.23;;;;;;;;;;6369039;22;20725;-73
2021/09/17 07:40:23;;;;;;;8.90;8.07;;;;;;;;;;6379641;22;20451;-72
2021/09/17 07:42:50;;;;;;;7.90;7.20;;;;;;;;;;6369239;22;20372;-73
2021/09/17 07:45:16;;;;;;;7.63;6.90;;;;;;;;;;6379621;22;20434;-72
2021/09/17 07:47:43;;;;;;;9.20;7.80;;;;;;;;;;6340976;22;20756;-72
2021/09/17 07:50:09;;;;;;;7.73;7.03;;;;;;;;;;6368952;22;20460;-73
2021/09/17 07:55:39;;;;;;;5.70;5.20;;;;;;;;;;6379490;22;20432;-73
2021/09/17 07:58:05;;;;;;;5.60;5.10;;;;;;;;;;6368966;22;20467;-72
2021/09/17 08:00:31;;;;;;;9.13;6.40;;;;;;;;;;6340674;22;20395;-72
2021/09/17 08:02:57;;;;;;;9.73;6.43;;;;;;;;;;6379192;22;20363;-70
2021/09/17 08:05:24;;;;;;;8.00;6.80;;;;;;;;;;6368278;22;20836;-74
2021/09/17 08:07:52;;;;;;;7.30;6.60;;;;;;;;;;6379305;22;20438;-71
2021/09/17 08:10:18;;;;;;;7.40;6.43;;;;;;;;;;6340507;22;20802;-72
2021/09/17 08:12:44;;;;;;;7.10;6.37;;;;;;;;;;6378841;22;20434;-73
2021/09/17 08:15:10;;;;;;;7.80;7.00;;;;;;;;;;6379114;22;20808;-72
2021/09/17 08:17:36;;;;;;;14.40;6.83;;;;;;;;;;6379047;22;20860;-73
2021/09/17 08:20:04;;;;;;;7.73;6.93;;;;;;;;;;6368684;22;20363;-71
2021/09/17 08:25:33;;;;;;;9.03;8.20;;;;;;;;;;6378434;22;20370;-72
2021/09/17 08:27:59;;;;;;;8.60;7.03;;;;;;;;;;6379443;22;20375;-71
2021/09/17 08:30:25;;;;;;;8.00;7.20;;;;;;;;;;6368703;22;20374;-73
2021/09/17 08:32:52;;;;;;;7.40;6.57;;;;;;;;;;6368740;22;20430;-73
2021/09/17 08:35:18;;;;;;;7.80;7.10;;;;;;;;;;6340758;22;20774;-72
2021/09/17 08:40:51;;;;;;;8.30;7.00;;;;;;;;;;6378463;22;20427;-72
2021/09/17 08:43:17;;;;;;;9.40;7.07;;;;;;;;;;6368595;22;20407;-72
2021/09/17 08:45:43;;;;;;;7.47;6.87;;;;;;;;;;6379009;22;20371;-73
2021/09/17 08:48:10;;;;;;;8.80;7.67;;;;;;;;;;6378928;22;20360;-73
2021/09/17 08:50:36;;;;;;;8.10;7.30;;;;;;;;;;6379132;22;20371;-73
2021/09/17 08:56:07;;;;;;;10.17;9.17;;;;;;;;;;6378881;22;20918;-73
2021/09/17 08:58:34;;;;;;;11.17;10.17;;;;;;;;;;6368533;22;20662;-73
2021/09/17 09:01:00;;;;;;;10.27;9.37;;;;;;;;;;6369442;22;20417;-71
2021/09/17 09:03:35;;;;;;;10.00;9.10;;;;;;;;;;6370630;22;20371;-73
2021/09/17 09:06:14;;;;;;;10.57;9.47;;;;;;;;;;6381115;22;20366;-73
2021/09/17 09:08:41;;;;;;;11.33;9.10;;;;;;;;;;6381052;22;20365;-73
2021/09/17 09:11:21;;;;;;;15.20;10.80;;;;;;;;;;6370469;22;20367;-72
2021/09/17 09:13:57;;;;;;;9.10;8.20;;;;;;;;;;6380884;22;20454;-73
2021/09/17 09:16:23;;;;;;;9.63;8.73;;;;;;;;;;6380871;22;20363;-72
2021/09/17 09:18:49;;;;;;;9.30;8.30;;;;;;;;;;6380831;22;20418;-72
2021/09/17 09:21:25;;;;;;;9.30;8.40;;;;;;;;;;6381123;22;20367;-73
2021/09/17 09:24:07;;;;;;;8.63;7.83;;;;;;;;;;6370234;22;20439;-71
2021/09/17 09:26:33;;;;;;;10.77;9.77;;;;;;;;;;6369773;22;20430;-72
2021/09/17 09:28:59;;;;;;;10.67;9.60;;;;;;;;;;6380877;22;20458;-74
2021/09/17 09:31:25;;;;;;;10.03;9.00;;;;;;;;;;6380757;22;20814;-73
2021/09/17 09:33:52;;;;;;;8.60;7.80;;;;;;;;;;6380578;22;20509;-73
2021/09/17 09:36:22;;;;;;;9.13;8.20;;;;;;;;;;6379965;22;20363;-71
2021/09/17 09:38:55;;;;;;;8.70;7.03;;;;;;;;;;6341947;22;20426;-70
2021/09/17 09:41:25;;;;;;;6.77;6.13;;;;;;;;;;6370221;22;20441;-71
2021/09/17 09:43:51;;;;;;;6.70;6.00;;;;;;;;;;6380530;22;20394;-71
2021/09/17 09:46:26;;;;;;;8.93;6.90;;;;;;;;;;6370099;22;20371;-71
2021/09/17 09:49:11;;;;;;;7.20;6.40;;;;;;;;;;6370218;22;20386;-71
2021/09/17 09:51:41;;;;;;;5.97;5.37;;;;;;;;;;6370422;22;20424;-72
2021/09/17 09:54:08;;;;;;;7.47;6.30;;;;;;;;;;6380594;22;20410;-72
2021/09/17 09:56:35;;;;;;;5.43;5.03;;;;;;;;;;6380717;22;20370;-72
2021/09/17 09:59:03;;;;;;;5.80;5.30;;;;;;;;;;6369882;22;20375;-72
2021/09/17 10:01:29;;;;;;;6.30;5.70;;;;;;;;;;6370074;22;20771;-73
2021/09/17 10:03:58;;;;;;;4.87;4.10;;;;;;;;;;6380374;22;20659;-71
2021/09/17 10:06:25;;;;;;;5.23;4.20;;;;;;;;;;6342058;22;20902;-72
2021/09/17 10:08:55;;;;;;;4.50;4.10;;;;;;;;;;6370280;22;20686;-71
2021/09/17 10:11:22;;;;;;;6.90;4.33;;;;;;;;;;6379802;22;20450;-71
2021/09/17 10:13:48;;;;;;;4.60;4.07;;;;;;;;;;6380200;22;20426;-72
2021/09/17 10:16:15;;;;;;;5.83;4.40;;;;;;;;;;6370041;22;20680;-71
2021/09/17 10:18:42;;;;;;;5.93;3.87;;;;;;;;;;6379576;22;20363;-72
2021/09/17 10:21:10;;;;;;;4.10;3.70;;;;;;;;;;6380288;22;20408;-71
2021/09/17 10:26:54;;;;;;;4.97;4.47;;;;;;;;;;6380168;22;20488;-71
2021/09/17 10:29:29;;;;;;;3.77;3.47;;;;;;;;;;6380214;22;20367;-71
2021/09/17 10:31:59;;;;;;;2.93;2.73;;;;;;;;;;6341616;22;20387;-71
2021/09/17 10:34:28;;;;;;;3.97;2.67;;;;;;;;;;6369520;22;20406;-71
2021/09/17 10:36:54;;;;;;;2.33;2.23;;;;;;;;;;6341653;22;20390;-71
2021/09/17 10:39:20;;;;;;;2.53;2.33;;;;;;;;;;6369704;22;20375;-71
2021/09/17 10:42:05;;;;;;;3.80;2.97;;;;;;;;;;6341430;22;20394;-71
2021/09/17 10:44:31;;;;;;;3.33;3.03;;;;;;;;;;6380326;22;20371;-72
2021/09/17 10:46:57;;;;;;;2.87;2.67;;;;;;;;;;6370112;22;20424;-71
2021/09/17 10:49:23;;;;;;;3.00;2.80;;;;;;;;;;6380006;22;20376;-71
2021/09/17 10:51:49;;;;;;;2.77;2.53;;;;;;;;;;6379796;22;20395;-71
2021/09/17 10:54:22;;;;;;;1.80;1.70;;;;;;;;;;6379368;22;20383;-72
2021/09/17 10:56:48;;;;;;;4.53;2.40;;;;;;;;;;6376169;22;20368;-72
2021/09/17 10:59:14;;;;;;;2.47;2.13;;;;;;;;;;6377378;22;20434;-72
2021/09/17 11:01:54;;;;;;;3.20;2.90;;;;;;;;;;6377936;22;20429;-72
2021/09/17 11:04:21;;;;;;;2.27;2.17;;;;;;;;;;6281507;22;20518;-72
2021/09/17 11:06:47;;;;;;;3.60;3.17;;;;;;;;;;6280774;22;20393;-71
2021/09/17 11:12:20;;;;;;;3.23;3.03;;;;;;;;;;6281276;22;20504;-72
2021/09/17 11:15:04;;;;;;;3.03;2.83;;;;;;;;;;6280978;22;20398;-72
2021/09/17 11:17:49;;;;;;;5.00;3.40;;;;;;;;;;6271097;22;20469;-73
2021/09/17 11:20:23;;;;;;;3.63;3.30;;;;;;;;;;6270778;22;20385;-73
2021/09/17 11:22:53;;;;;;;2.50;2.30;;;;;;;;;;6280644;22;20405;-72
2021/09/17 11:25:27;;;;;;;2.93;2.73;;;;;;;;;;6270581;22;20783;-71
2021/09/17 11:27:54;;;;;;;2.80;2.60;;;;;;;;;;6270979;22;20444;-71
2021/09/17 11:30:23;;;;;;;2.60;2.40;;;;;;;;;;6272252;22;20914;-72
2021/09/17 11:32:49;;;;;;;2.47;2.30;;;;;;;;;;6271785;22;20521;-72
2021/09/17 11:35:16;;;;;;;3.63;3.33;;;;;;;;;;6318259;22;20498;-72
2021/09/17 11:37:55;;;;;;;3.00;2.77;;;;;;;;;;6378709;22;20455;-72
2021/09/17 11:40:22;;;;;;;2.60;2.40;;;;;;;;;;6368844;22;20373;-73
2021/09/17 11:42:48;;;;;;;2.63;2.43;;;;;;;;;;6379131;22;20690;-74
2021/09/17 11:45:16;;;;;;;2.53;2.27;;;;;;;;;;6379319;22;20436;-73
2021/09/17 11:47:45;;;;;;;2.30;2.10;;;;;;;;;;6368683;22;20780;-73
2021/09/17 11:50:15;;;;;;;3.07;1.60;;;;;;;;;;6379286;22;20417;-73
2021/09/17 11:52:41;;;;;;;3.43;2.40;;;;;;;;;;6368887;22;20426;-73
2021/09/17 11:55:07;;;;;;;4.70;2.67;;;;;;;;;;6379123;22;20687;-72
2021/09/17 11:57:35;;;;;;;2.50;2.30;;;;;;;;;;6379171;22;20391;-73
2021/09/17 12:00:06;;;;;;;2.40;2.20;;;;;;;;;;6368846;22;20379;-72
2021/09/17 12:02:32;;;;;;;2.63;2.33;;;;;;;;;;6368955;22;20493;-71
2021/09/17 12:05:01;;;;;;;2.33;2.23;;;;;;;;;;6341076;22;20869;-72
2021/09/17 12:07:27;;;;;;;2.37;2.07;;;;;;;;;;6379198;22;20356;-73
2021/09/17 12:13:02;;;;;;;2.23;2.13;;;;;;;;;;6378327;22;20456;-73
2021/09/17 12:15:32;;;;;;;2.47;2.27;;;;;;;;;;6368137;22;20390;-74
2021/09/17 12:17:58;;;;;;;2.47;2.27;;;;;;;;;;6368346;22;20416;-73
2021/09/17 12:20:39;;;;;;;3.67;2.20;;;;;;;;;;6378965;22;20394;-72
2021/09/17 12:23:06;;;;;;;2.40;1.97;;;;;;;;;;6379915;22;20359;-74
2021/09/17 12:25:32;;;;;;;2.23;2.00;;;;;;;;;;6369974;22;20719;-74
2021/09/17 12:28:03;;;;;;;2.83;2.50;;;;;;;;;;6380626;22;20379;-74
2021/09/17 12:30:33;;;;;;;2.53;2.33;;;;;;;;;;6369493;22;20375;-74
2021/09/17 12:33:05;;;;;;;2.13;1.97;;;;;;;;;;6369934;22;20807;-73
2021/09/17 12:35:31;;;;;;;2.63;2.33;;;;;;;;;;6369347;22;20436;-73
2021/09/17 12:37:58;;;;;;;2.60;2.20;;;;;;;;;;6369603;22;20379;-72
2021/09/17 12:40:28;;;;;;;2.90;2.53;;;;;;;;;;6369696;22;20378;-74
2021/09/17 12:42:58;;;;;;;3.40;3.20;;;;;;;;;;6342450;22;20391;-73
2021/09/17 12:45:25;;;;;;;3.03;2.83;;;;;;;;;;6369924;22;20367;-74
2021/09/17 12:47:52;;;;;;;2.60;2.40;;;;;;;;;;6342068;22;20481;-71
2021/09/17 12:50:19;;;;;;;4.20;2.03;;;;;;;;;;6380446;22;20547;-75
2021/09/17 12:52:46;;;;;;;4.40;2.40;;;;;;;;;;6341978;22;20414;-74
2021/09/17 12:58:17;;;;;;;2.67;2.47;;;;;;;;;;6380519;22;20420;-73
2021/09/17 13:00:45;;;;;;;2.53;2.40;;;;;;;;;;6370141;22;20368;-71
2021/09/17 13:03:12;;;;;;;2.67;2.47;;;;;;;;;;6379903;22;20363;-72
2021/09/17 13:05:40;;;;;;;4.23;2.80;;;;;;;;;;6378632;22;20825;-73
2021/09/17 13:08:06;;;;;;;3.10;2.90;;;;;;;;;;6368859;22;20463;-72
2021/09/17 13:13:35;;;;;;;4.23;3.30;;;;;;;;;;6378604;22;20429;-72
2021/09/17 13:16:01;;;;;;;2.80;2.60;;;;;;;;;;6378165;22;20371;-73
2021/09/17 13:18:27;;;;;;;3.00;2.47;;;;;;;;;;6368613;22;20474;-73
2021/09/17 13:20:54;;;;;;;3.63;3.30;;;;;;;;;;6379270;22;20776;-72
2021/09/17 13:23:20;;;;;;;4.20;3.70;;;;;;;;;;6379114;22;20379;-72
2021/09/17 13:28:49;;;;;;;3.93;2.80;;;;;;;;;;6379079;22;20868;-72
2021/09/17 13:31:15;;;;;;;2.83;2.53;;;;;;;;;;6379002;22;20750;-72
2021/09/17 13:33:41;;;;;;;2.73;2.53;;;;;;;;;;6368159;22;20437;-72
2021/09/17 13:36:07;;;;;;;4.00;2.90;;;;;;;;;;6378931;22;20761;-72
2021/09/17 13:38:33;;;;;;;3.67;2.97;;;;;;;;;;6378907;22;20419;-72
2021/09/17 13:40:59;;;;;;;2.90;2.70;;;;;;;;;;6378952;22;20516;-72
2021/09/17 13:43:25;;;;;;;2.60;2.30;;;;;;;;;;6379173;22;20399;-73
2021/09/17 13:45:51;;;;;;;5.00;2.10;;;;;;;;;;6368237;22;20395;-72
2021/09/17 13:48:17;;;;;;;2.73;2.53;;;;;;;;;;6379736;22;20378;-72
2021/09/17 13:50:43;;;;;;;3.90;2.90;;;;;;;;;;6370365;22;20366;-72
2021/09/17 13:53:09;;;;;;;2.93;2.70;;;;;;;;;;6380841;22;20509;-73
2021/09/17 13:58:38;;;;;;;2.83;2.30;;;;;;;;;;6381066;22;20366;-72
2021/09/17 14:01:04;;;;;;;2.30;2.10;;;;;;;;;;6381088;22;20459;-72
2021/09/17 14:03:30;;;;;;;2.30;2.20;;;;;;;;;;6342516;22;20383;-73
2021/09/17 14:05:56;;;;;;;3.80;2.50;;;;;;;;;;6380981;22;20416;-73
2021/09/17 14:08:22;;;;;;;2.47;2.17;;;;;;;;;;6380896;22;20832;-72
2021/09/17 14:13:52;;;;;;;4.50;2.40;;;;;;;;;;6380490;22;20517;-72
2021/09/17 14:16:18;;;;;;;4.03;2.90;;;;;;;;;;6342321;22;20422;-73
2021/09/17 14:18:44;;;;;;;2.40;2.20;;;;;;;;;;6380915;22;20440;-72
2021/09/17 14:21:10;;;;;;;2.67;2.47;;;;;;;;;;6380634;22;20367;-73
2021/09/17 14:23:36;;;;;;;3.73;2.60;;;;;;;;;;6370122;22;20400;-72
2021/09/17 14:29:06;;;;;;;2.20;2.00;;;;;;;;;;6380050;22;20370;-73
2021/09/17 14:31:32;;;;;;;2.63;2.43;;;;;;;;;;6376026;22;20769;-73
2021/09/17 14:33:58;;;;;;;3.07;2.50;;;;;;;;;;6379157;22;20415;-72
2021/09/17 14:36:24;;;;;;;2.70;2.50;;;;;;;;;;6379403;22;20694;-72
2021/09/17 14:38:50;;;;;;;6.47;3.23;;;;;;;;;;6368899;22;20422;-73
2021/09/17 14:44:20;;;;;;;2.80;2.60;;;;;;;;;;6379034;22;20489;-73
2021/09/17 14:46:46;;;;;;;2.60;2.40;;;;;;;;;;6378584;22;20704;-73
2021/09/17 14:49:12;;;;;;;2.20;1.97;;;;;;;;;;6378762;22;20442;-74
2021/09/17 14:51:38;;;;;;;2.70;2.50;;;;;;;;;;6378619;22;20420;-72
2021/09/17 14:54:04;;;;;;;3.17;2.87;;;;;;;;;;6339965;22;20442;-72
2021/09/17 14:56:30;;;;;;;3.07;2.77;;;;;;;;;;6378579;22;20405;-74
2021/09/17 14:58:56;;;;;;;3.97;2.60;;;;;;;;;;6340027;22;20417;-73
2021/09/17 15:01:22;;;;;;;3.90;2.60;;;;;;;;;;6368238;22;20458;-74
2021/09/17 15:03:48;;;;;;;2.83;2.53;;;;;;;;;;6378670;22;20842;-72
2021/09/17 15:06:14;;;;;;;3.07;2.87;;;;;;;;;;6368311;22;20382;-73
2021/09/17 15:08:40;;;;;;;2.07;1.97;;;;;;;;;;6368216;22;20404;-73
2021/09/17 15:14:09;;;;;;;3.17;2.93;;;;;;;;;;6378269;22;20430;-72
2021/09/17 15:16:35;;;;;;;4.30;2.40;;;;;;;;;;6379918;22;20814;-73
2021/09/17 15:19:01;;;;;;;6.67;2.93;;;;;;;;;;6378983;22;20371;-73
2021/09/17 15:21:28;;;;;;;4.80;2.80;;;;;;;;;;6369096;22;20703;-72
2021/09/17 15:23:55;;;;;;;3.13;2.87;;;;;;;;;;6369410;22;20383;-71
2021/09/17 15:29:24;;;;;;;3.87;3.07;;;;;;;;;;6379429;22;20369;-73
2021/09/17 15:31:50;;;;;;;2.60;2.40;;;;;;;;;;6379307;22;20454;-72
2021/09/17 15:34:16;;;;;;;2.87;2.67;;;;;;;;;;6379394;22;20819;-73
2021/09/17 15:36:42;;;;;;;3.70;3.40;;;;;;;;;;6379422;22;20367;-74
2021/09/17 15:39:08;;;;;;;5.70;4.40;;;;;;;;;;6379206;22;20382;-73
2021/09/17 15:44:38;;;;;;;6.13;3.20;;;;;;;;;;6374339;22;20374;-72
2021/09/17 15:47:04;;;;;;;3.60;3.10;;;;;;;;;;6376676;22;20821;-73
2021/09/17 15:49:30;;;;;;;4.80;3.27;;;;;;;;;;6377810;22;20458;-72
2021/09/17 15:51:56;;;;;;;3.00;2.73;;;;;;;;;;6377820;22;20728;-72
2021/09/17 15:54:22;;;;;;;5.20;3.53;;;;;;;;;;6377706;22;20408;-72
2021/09/17 15:59:52;;;;;;;3.20;2.90;;;;;;;;;;6378069;22;20421;-72
2021/09/17 16:02:18;;;;;;;2.90;2.70;;;;;;;;;;6367719;22;20462;-73
2021/09/17 16:04:44;;;;;;;2.87;2.70;;;;;;;;;;6367536;22;20398;-73
2021/09/17 16:07:10;;;;;;;8.00;3.40;;;;;;;;;;6378125;22;20654;-72
2021/09/17 16:09:36;;;;;;;3.30;3.10;;;;;;;;;;6367084;22;20390;-73
2021/09/17 16:15:07;;;;;;;2.90;2.70;;;;;;;;;;6377572;22;20459;-74
2021/09/17 16:17:35;;;;;;;3.37;2.90;;;;;;;;;;6366541;22;20394;-72
2021/09/17 16:20:01;;;;;;;3.67;3.37;;;;;;;;;;6377436;22;20393;-71
2021/09/17 16:22:27;;;;;;;3.27;2.77;;;;;;;;;;6377712;22;20397;-72
2021/09/17 16:24:53;;;;;;;3.43;3.13;;;;;;;;;;6339385;22;20930;-72
2021/09/17 16:30:22;;;;;;;4.40;4.00;;;;;;;;;;6377377;22;20378;-73
2021/09/17 16:32:48;;;;;;;3.97;3.50;;;;;;;;;;6376957;22;20414;-71
2021/09/17 16:35:15;;;;;;;4.00;3.03;;;;;;;;;;6374243;22;20725;-71
2021/09/17 16:37:41;;;;;;;3.37;3.13;;;;;;;;;;6377906;22;20372;-73
2021/09/17 16:40:08;;;;;;;3.70;3.40;;;;;;;;;;6377498;22;20432;-71
2021/09/17 16:42:34;;;;;;;3.40;2.93;;;;;;;;;;6367554;22;20744;-73
2021/09/17 16:45:00;;;;;;;4.70;4.27;;;;;;;;;;6367779;22;20383;-72
2021/09/17 16:47:26;;;;;;;4.07;3.77;;;;;;;;;;6377970;22;20810;-72
2021/09/17 16:49:54;;;;;;;5.57;4.10;;;;;;;;;;6338967;22;20448;-71
2021/09/17 16:52:20;;;;;;;3.57;3.27;;;;;;;;;;6377346;22;20407;-72
2021/09/17 16:54:46;;;;;;;7.10;6.20;;;;;;;;;;6377568;22;20435;-71
2021/09/17 17:00:16;;;;;;;4.00;3.70;;;;;;;;;;6379342;22;20366;-71
2021/09/17 17:02:42;;;;;;;4.53;4.23;;;;;;;;;;6379301;22;20389;-72
2021/09/17 17:05:09;;;;;;;4.73;4.33;;;;;;;;;;6368777;22;20367;-72